createdAt,value
2022-11-03T05:31:00.570Z,11.11
2022-11-03T05:32:00.340Z,11.17
2022-11-03T05:33:00.341Z,11.17
2022-11-03T05:34:00.327Z,11.17
2022-11-03T05:35:00.323Z,11.21
2022-11-03T05:36:00.288Z,11.24
2022-11-03T05:37:00.276Z,11.24
2022-11-03T05:38:00.288Z,11.21
2022-11-03T05:39:00.247Z,11.20
2022-11-03T05:40:00.260Z,11.24
2022-11-03T05:41:00.224Z,11.20
2022-11-03T05:42:00.217Z,11.21
2022-11-03T05:43:00.309Z,11.21
2022-11-03T05:44:00.189Z,11.24
2022-11-03T05:45:07.234Z,11.25
2022-11-03T05:46:00.235Z,11.28
2022-11-03T05:47:03.133Z,11.27
2022-11-03T05:48:01.151Z,11.27
2022-11-03T05:49:00.142Z,11.24
2022-11-03T05:50:00.265Z,11.24
2022-11-03T05:51:00.105Z,11.27
2022-11-03T05:52:00.095Z,11.28
2022-11-03T05:53:00.072Z,11.29
2022-11-03T05:54:00.060Z,11.29
2022-11-03T05:55:00.041Z,11.29
2022-11-03T05:56:00.036Z,11.29
2022-11-03T05:57:00.021Z,11.31
2022-11-03T05:58:00.022Z,11.29
2022-11-03T05:58:59.988Z,11.29
2022-11-03T05:59:59.980Z,11.31
2022-11-03T06:00:59.959Z,11.32
2022-11-03T06:02:00.134Z,11.34
2022-11-03T06:03:00.017Z,11.36
2022-11-03T06:03:59.919Z,11.35
2022-11-03T06:04:59.909Z,11.36
2022-11-03T06:05:59.912Z,11.38
2022-11-03T06:06:59.879Z,11.41
2022-11-03T06:07:59.899Z,11.44
2022-11-03T06:08:59.851Z,11.44
2022-11-03T06:09:59.849Z,11.46
2022-11-03T06:10:59.849Z,11.49
2022-11-03T06:11:59.819Z,11.52
2022-11-03T06:12:59.818Z,11.52
2022-11-03T06:13:59.788Z,11.52
2022-11-03T06:14:59.789Z,11.50
2022-11-03T06:15:59.767Z,11.53
2022-11-03T06:16:59.760Z,11.54
2022-11-03T06:17:59.760Z,11.56
2022-11-03T06:18:59.744Z,11.56
2022-11-03T06:19:59.727Z,11.56
2022-11-03T06:20:59.702Z,11.54
2022-11-03T06:21:59.687Z,11.59
2022-11-03T06:22:59.688Z,11.59
2022-11-03T06:23:59.727Z,11.57
2022-11-03T06:24:59.651Z,11.59
2022-11-03T06:25:59.677Z,11.57
2022-11-03T06:26:59.619Z,11.56
2022-11-03T06:27:59.627Z,11.54
2022-11-03T06:28:59.607Z,11.54
2022-11-03T06:29:59.606Z,11.53
2022-11-03T06:30:59.575Z,11.56
2022-11-03T06:31:59.558Z,11.56
2022-11-03T06:32:59.537Z,11.57
2022-11-03T06:33:59.547Z,11.59
2022-11-03T06:34:59.565Z,11.61
2022-11-03T06:35:59.516Z,11.64
2022-11-03T06:36:59.499Z,11.74
2022-11-03T06:37:59.512Z,11.72
2022-11-03T06:38:59.487Z,11.68
2022-11-03T06:39:59.456Z,11.67
2022-11-03T06:40:59.566Z,11.65
2022-11-03T06:41:59.556Z,11.68
2022-11-03T06:42:59.414Z,11.70
2022-11-03T06:43:59.423Z,11.70
2022-11-03T06:44:59.383Z,11.72
2022-11-03T06:45:59.412Z,11.74
2022-11-03T06:46:59.386Z,11.74
2022-11-03T06:47:59.354Z,11.74
2022-11-03T06:48:59.344Z,11.75
2022-11-03T06:49:59.326Z,11.75
2022-11-03T06:50:59.338Z,11.75
2022-11-03T06:51:59.494Z,11.77
2022-11-03T06:52:59.289Z,11.77
2022-11-03T06:53:59.515Z,11.82
2022-11-03T06:54:59.325Z,11.85
2022-11-03T06:55:59.279Z,11.89
2022-11-03T06:56:59.224Z,11.89
2022-11-03T06:57:59.227Z,11.90
2022-11-03T06:58:59.299Z,11.87
2022-11-03T07:00:13.305Z,11.87
2022-11-03T07:01:03.329Z,11.86
2022-11-03T07:01:59.210Z,11.89
2022-11-03T07:02:59.153Z,11.89
2022-11-03T07:03:59.235Z,11.89
2022-11-03T07:04:59.124Z,11.89
2022-11-03T07:05:59.153Z,11.89
2022-11-03T07:06:59.102Z,11.90
2022-11-03T07:07:59.111Z,11.90
2022-11-03T07:08:59.090Z,11.90
2022-11-03T07:09:59.063Z,11.90
2022-11-03T07:10:59.065Z,11.96
2022-11-03T07:11:59.043Z,11.99
2022-11-03T07:13:01.853Z,12.01
2022-11-03T07:14:00.042Z,12.01
2022-11-03T07:14:59.058Z,12.01
2022-11-03T07:15:58.992Z,12.01
2022-11-03T07:16:58.972Z,11.99
2022-11-03T07:17:58.953Z,11.97
2022-11-03T07:18:58.959Z,11.96
2022-11-03T07:19:58.933Z,11.97
2022-11-03T07:20:58.914Z,11.99
2022-11-03T07:21:58.901Z,11.99
2022-11-03T07:22:58.901Z,12.02
2022-11-03T07:23:58.891Z,12.02
2022-11-03T07:24:58.870Z,12.02
2022-11-03T07:25:58.851Z,12.04
2022-11-03T07:26:58.839Z,12.05
2022-11-03T07:27:58.831Z,12.06
2022-11-03T07:28:58.832Z,12.08
2022-11-03T07:29:58.820Z,12.08
2022-11-03T07:30:58.791Z,12.09
2022-11-03T07:31:58.789Z,12.09
2022-11-03T07:32:58.760Z,12.11
2022-11-03T07:33:58.768Z,12.13
2022-11-03T07:34:58.731Z,12.13
2022-11-03T07:36:15.880Z,12.13
2022-11-03T07:36:59.769Z,12.13
2022-11-03T07:37:58.712Z,12.15
2022-11-03T07:38:58.690Z,12.15
2022-11-03T07:39:58.679Z,12.16
2022-11-03T07:40:58.659Z,12.19
2022-11-03T07:41:58.650Z,12.20
2022-11-03T07:42:58.643Z,12.21
2022-11-03T07:43:58.633Z,12.20
2022-11-03T07:44:58.599Z,12.21
2022-11-03T07:45:58.600Z,12.23
2022-11-03T07:46:58.579Z,12.24
2022-11-03T07:48:01.825Z,12.26
2022-11-03T07:48:59.594Z,12.27
2022-11-03T07:49:58.548Z,12.27
2022-11-03T07:50:58.579Z,12.30
2022-11-03T07:51:58.529Z,12.31
2022-11-03T07:52:58.499Z,12.31
2022-11-03T07:53:58.513Z,12.31
2022-11-03T07:54:58.472Z,12.33
2022-11-03T07:55:58.572Z,12.34
2022-11-03T07:56:58.449Z,12.37
2022-11-03T07:57:58.448Z,12.39
2022-11-03T07:58:58.441Z,12.38
2022-11-03T07:59:58.424Z,12.37
2022-11-03T08:00:58.397Z,12.39
2022-11-03T08:01:58.566Z,12.41
2022-11-03T08:02:58.368Z,12.42
2022-11-03T08:03:58.379Z,12.44
2022-11-03T08:04:58.357Z,12.46
2022-11-03T08:05:58.360Z,12.48
2022-11-03T08:06:58.326Z,12.49
2022-11-03T08:07:58.323Z,12.49
2022-11-03T08:08:58.318Z,12.52
2022-11-03T08:09:58.289Z,12.54
2022-11-03T08:10:58.267Z,12.56
2022-11-03T08:11:58.259Z,12.59
2022-11-03T08:12:58.238Z,12.60
2022-11-03T08:13:58.256Z,12.60
2022-11-03T08:14:58.217Z,12.63
2022-11-03T08:15:58.205Z,12.66
2022-11-03T08:16:58.208Z,12.64
2022-11-03T08:17:58.198Z,12.67
2022-11-03T08:18:58.165Z,12.69
2022-11-03T08:19:58.166Z,12.71
2022-11-03T08:20:58.136Z,12.77
2022-11-03T08:21:58.126Z,12.85
2022-11-03T08:23:24.151Z,12.93
2022-11-03T08:23:59.134Z,12.99
2022-11-03T08:24:58.096Z,13.06
2022-11-03T08:25:58.095Z,13.20
2022-11-03T08:26:58.067Z,13.38
2022-11-03T08:27:58.046Z,13.54
2022-11-03T08:28:58.063Z,13.67
2022-11-03T08:29:58.025Z,13.80
2022-11-03T08:31:00.916Z,13.88
2022-11-03T08:31:58.007Z,13.81
2022-11-03T08:32:57.976Z,13.84
2022-11-03T08:33:58.009Z,13.80
2022-11-03T08:34:57.956Z,13.70
2022-11-03T08:35:57.955Z,13.61
2022-11-03T08:36:57.936Z,13.58
2022-11-03T08:37:57.916Z,13.52
2022-11-03T08:38:57.904Z,13.46
2022-11-03T08:39:57.906Z,13.44
2022-11-03T08:40:57.876Z,13.41
2022-11-03T08:41:57.889Z,13.40
2022-11-03T08:42:57.849Z,13.36
2022-11-03T08:43:57.854Z,13.33
2022-11-03T08:44:57.835Z,13.36
2022-11-03T08:46:05.634Z,13.33
2022-11-03T08:46:58.810Z,13.38
2022-11-03T08:47:57.784Z,13.33
2022-11-03T08:48:57.775Z,13.37
2022-11-03T08:49:57.784Z,13.36
2022-11-03T08:50:57.753Z,13.33
2022-11-03T08:51:57.731Z,13.40
2022-11-03T08:52:57.724Z,13.43
2022-11-03T08:53:57.704Z,13.47
2022-11-03T08:55:57.685Z,13.46
2022-11-03T08:56:57.664Z,13.46
2022-11-03T08:57:57.655Z,13.47
2022-11-03T08:58:57.646Z,13.47
2022-11-03T08:59:57.675Z,13.51
2022-11-03T09:00:57.637Z,13.54
2022-11-03T09:01:57.693Z,13.52
2022-11-03T09:02:57.593Z,13.54
2022-11-03T09:03:57.730Z,13.56
2022-11-03T09:04:57.562Z,13.56
2022-11-03T09:05:57.554Z,13.59
2022-11-03T09:06:57.538Z,13.59
2022-11-03T09:10:58.851Z,13.67
2022-11-03T09:11:57.476Z,13.70
2022-11-03T09:12:57.455Z,13.71
2022-11-03T09:13:57.463Z,13.76
2022-11-03T09:14:57.433Z,13.81
2022-11-03T09:15:57.422Z,13.84
2022-11-03T09:16:57.487Z,13.84
2022-11-03T09:17:57.392Z,13.87
2022-11-03T09:18:57.413Z,13.87
2022-11-03T09:19:57.373Z,13.91
2022-11-03T09:20:57.351Z,13.95
2022-11-03T09:21:57.352Z,13.95
2022-11-03T09:22:57.322Z,13.99
2022-11-03T09:23:57.320Z,14.04
2022-11-03T09:24:57.311Z,14.01
2022-11-03T09:25:57.291Z,14.02
2022-11-03T09:27:02.025Z,14.04
2022-11-03T09:27:58.268Z,14.07
2022-11-03T09:28:57.261Z,14.10
2022-11-03T09:30:12.162Z,14.14
2022-11-03T09:30:58.221Z,14.14
2022-11-03T09:31:57.212Z,14.19
2022-11-03T09:32:57.193Z,14.21
2022-11-03T09:33:57.215Z,14.27
2022-11-03T09:34:57.170Z,14.27
2022-11-03T09:35:57.170Z,14.27
2022-11-03T09:36:57.142Z,14.34
2022-11-03T09:37:57.132Z,14.32
2022-11-03T09:38:57.131Z,14.32
2022-11-03T09:39:57.111Z,14.35
2022-11-03T09:40:57.091Z,14.38
2022-11-03T09:41:58.860Z,14.37
2022-11-03T09:42:57.073Z,14.42
2022-11-03T09:43:57.076Z,14.42
2022-11-03T09:44:57.041Z,14.42
2022-11-03T09:45:57.030Z,14.44
2022-11-03T09:46:58.590Z,14.47
2022-11-03T09:47:57.002Z,14.53
2022-11-03T09:48:56.999Z,14.53
2022-11-03T09:49:56.979Z,14.57
2022-11-03T09:50:56.960Z,14.64
2022-11-03T09:51:56.959Z,14.71
2022-11-03T09:52:56.950Z,14.72
2022-11-03T09:53:56.951Z,14.78
2022-11-03T09:54:56.910Z,14.84
2022-11-03T09:55:56.922Z,14.94
2022-11-03T09:56:56.880Z,15.08
2022-11-03T09:57:56.879Z,15.13
2022-11-03T09:58:56.869Z,15.20
2022-11-03T09:59:56.854Z,15.20
2022-11-03T10:00:56.868Z,15.23
2022-11-03T10:01:57.011Z,15.33
2022-11-03T10:02:56.810Z,15.38
2022-11-03T10:03:56.811Z,15.49
2022-11-03T10:04:56.802Z,15.60
2022-11-03T10:05:56.770Z,15.81
2022-11-03T10:06:56.752Z,15.85
2022-11-03T10:07:56.783Z,15.75
2022-11-03T10:08:56.727Z,15.63
2022-11-03T10:09:56.731Z,15.57
2022-11-03T10:10:56.700Z,15.49
2022-11-03T10:11:56.701Z,15.46
2022-11-03T10:12:56.700Z,15.54
2022-11-03T10:13:56.664Z,15.64
2022-11-03T10:14:56.648Z,15.66
2022-11-03T10:15:56.649Z,15.64
2022-11-03T10:16:56.619Z,15.63
2022-11-03T10:17:56.619Z,15.52
2022-11-03T10:18:56.610Z,15.49
2022-11-03T10:19:56.580Z,15.49
2022-11-03T10:20:56.575Z,15.42
2022-11-03T10:21:56.559Z,15.43
2022-11-03T10:22:56.538Z,15.52
2022-11-03T10:23:56.548Z,15.56
2022-11-03T10:24:56.510Z,15.60
2022-11-03T10:25:56.499Z,15.64
2022-11-03T10:26:56.488Z,15.70
2022-11-03T10:27:56.487Z,15.81
2022-11-03T10:28:56.479Z,15.85
2022-11-03T10:29:58.132Z,15.94
2022-11-03T10:31:12.942Z,16.03
2022-11-03T10:31:57.418Z,15.99
2022-11-03T10:32:56.408Z,15.97
2022-11-03T10:33:56.410Z,16.01
2022-11-03T10:34:56.379Z,16.25
2022-11-03T10:35:56.368Z,16.67
2022-11-03T10:36:56.356Z,16.92
2022-11-03T10:37:56.348Z,17.23
2022-11-03T10:38:56.377Z,17.38
2022-11-03T10:39:56.332Z,17.33
2022-11-03T10:40:56.300Z,17.33
2022-11-03T10:41:56.326Z,17.38
2022-11-03T10:42:56.284Z,17.17
2022-11-03T10:43:56.270Z,17.07
2022-11-03T10:44:56.248Z,17.00
2022-11-03T10:45:56.238Z,16.70
2022-11-03T10:46:56.270Z,16.58
2022-11-03T10:48:00.444Z,16.45
2022-11-03T10:48:56.276Z,16.35
2022-11-03T10:49:56.208Z,16.25
2022-11-03T10:50:56.168Z,16.07
2022-11-03T10:51:56.160Z,15.99
2022-11-03T10:52:56.149Z,15.94
2022-11-03T10:53:56.150Z,15.88
2022-11-03T10:54:56.145Z,15.86
2022-11-03T10:55:56.118Z,15.89
2022-11-03T10:56:56.099Z,15.86
2022-11-03T10:57:56.089Z,15.79
2022-11-03T10:58:56.080Z,15.81
2022-11-03T10:59:56.175Z,15.76
2022-11-03T11:00:56.155Z,15.78
2022-11-03T11:01:56.115Z,15.78
2022-11-03T11:02:56.019Z,15.70
2022-11-03T11:03:56.067Z,15.67
2022-11-03T11:04:55.989Z,15.67
2022-11-03T11:05:55.988Z,15.64
2022-11-03T11:06:55.977Z,15.61
2022-11-03T11:07:56.094Z,15.61
2022-11-03T11:08:59.739Z,15.57
2022-11-03T11:09:55.928Z,15.51
2022-11-03T11:10:55.908Z,15.52
2022-11-03T11:11:55.899Z,15.52
2022-11-03T11:12:55.888Z,15.51
2022-11-03T11:13:55.878Z,15.54
2022-11-03T11:14:55.871Z,15.52
2022-11-03T11:15:55.850Z,15.49
2022-11-03T11:16:55.828Z,15.51
2022-11-03T11:17:55.838Z,15.52
2022-11-03T11:18:55.807Z,15.56
2022-11-03T11:19:55.808Z,15.56
2022-11-03T11:20:55.792Z,15.60
2022-11-03T11:21:55.767Z,15.63
2022-11-03T11:22:55.753Z,15.64
2022-11-03T11:23:55.747Z,15.64
2022-11-03T11:24:55.738Z,15.67
2022-11-03T11:25:55.721Z,15.67
2022-11-03T11:26:55.698Z,15.68
2022-11-03T11:27:58.309Z,15.68
2022-11-03T11:28:55.676Z,15.68
2022-11-03T11:29:55.688Z,15.67
2022-11-03T11:30:55.648Z,15.67
2022-11-03T11:31:55.637Z,15.67
2022-11-03T11:32:55.617Z,15.64
2022-11-03T11:33:55.608Z,15.61
2022-11-03T11:34:55.607Z,15.63
2022-11-03T11:35:59.085Z,15.64
2022-11-03T11:36:55.576Z,15.60
2022-11-03T11:37:55.559Z,15.59
2022-11-03T11:38:55.574Z,15.61
2022-11-03T11:39:55.548Z,15.63
2022-11-03T11:40:55.526Z,15.63
2022-11-03T11:41:55.527Z,15.60
2022-11-03T11:42:55.529Z,15.60
2022-11-03T11:43:55.598Z,15.61
2022-11-03T11:45:02.535Z,15.61
2022-11-03T11:45:55.452Z,15.60
2022-11-03T11:46:55.432Z,15.60
2022-11-03T11:47:55.421Z,15.59
2022-11-03T11:48:55.409Z,15.59
2022-11-03T11:49:55.411Z,15.54
2022-11-03T11:50:55.391Z,15.52
2022-11-03T11:51:55.388Z,15.52
2022-11-03T11:52:55.362Z,15.52
2022-11-03T11:54:16.781Z,15.52
2022-11-03T11:54:56.333Z,15.51
2022-11-03T11:55:55.322Z,15.54
2022-11-03T11:56:55.302Z,15.54
2022-11-03T11:57:55.291Z,15.56
2022-11-03T11:58:55.271Z,15.60
2022-11-03T11:59:55.351Z,15.67
2022-11-03T12:00:55.251Z,15.76
2022-11-03T12:01:55.348Z,16.07
2022-11-03T12:02:55.234Z,16.53
2022-11-03T12:03:55.265Z,16.93
2022-11-03T12:04:55.214Z,17.13
2022-11-03T12:05:55.193Z,17.50
2022-11-03T12:06:55.189Z,17.67
2022-11-03T12:07:55.165Z,17.85
2022-11-03T12:08:55.142Z,18.04
2022-11-03T12:09:55.142Z,18.19
2022-11-03T12:10:55.244Z,18.00
2022-11-03T12:11:56.127Z,18.06
2022-11-03T12:12:55.102Z,17.92
2022-11-03T12:13:55.089Z,18.07
2022-11-03T12:14:55.062Z,18.52
2022-11-03T12:15:55.072Z,18.87
2022-11-03T12:16:55.041Z,19.11
2022-11-03T12:17:55.041Z,19.51
2022-11-03T12:18:55.013Z,19.73
2022-11-03T12:19:55.010Z,19.48
2022-11-03T12:20:55.002Z,19.55
2022-11-03T12:21:54.999Z,19.66
2022-11-03T12:22:54.963Z,19.18
2022-11-03T12:23:54.953Z,18.61
2022-11-03T12:24:54.944Z,17.94
2022-11-03T12:25:54.943Z,17.67
2022-11-03T12:26:54.912Z,17.48
2022-11-03T12:27:54.904Z,17.84
2022-11-03T12:28:54.904Z,18.15
2022-11-03T12:29:54.890Z,19.06
2022-11-03T12:30:54.886Z,19.66
2022-11-03T12:31:54.846Z,19.72
2022-11-03T12:32:54.835Z,19.28
2022-11-03T12:33:54.834Z,19.08
2022-11-03T12:34:54.813Z,18.61
2022-11-03T12:35:54.813Z,18.47
2022-11-03T12:36:56.326Z,18.27
2022-11-03T12:37:54.773Z,17.89
2022-11-03T12:38:54.753Z,17.67
2022-11-03T12:39:54.743Z,17.59
2022-11-03T12:40:54.744Z,17.53
2022-11-03T12:41:54.723Z,17.40
2022-11-03T12:42:54.703Z,17.33
2022-11-03T12:43:54.756Z,17.17
2022-11-03T12:44:54.679Z,17.10
2022-11-03T12:45:54.674Z,17.14
2022-11-03T12:46:54.664Z,17.07
2022-11-03T12:47:54.644Z,17.10
2022-11-03T12:48:54.624Z,17.07
2022-11-03T12:49:54.622Z,17.04
2022-11-03T12:50:54.723Z,17.00
2022-11-03T12:51:54.623Z,17.00
2022-11-03T12:52:54.578Z,17.07
2022-11-03T12:53:54.591Z,17.06
2022-11-03T12:54:54.553Z,17.08
2022-11-03T12:55:54.553Z,17.14
2022-11-03T12:56:54.523Z,17.20
2022-11-03T12:57:54.527Z,17.11
2022-11-03T12:58:54.497Z,17.08
2022-11-03T12:59:54.493Z,17.13
2022-11-03T13:00:55.277Z,17.10
2022-11-03T13:01:54.570Z,17.04
2022-11-03T13:02:54.585Z,17.04
2022-11-03T13:03:54.435Z,16.99
2022-11-03T13:04:55.997Z,16.95
2022-11-03T13:05:54.438Z,16.95
2022-11-03T13:06:54.406Z,16.93
2022-11-03T13:07:54.383Z,16.93
2022-11-03T13:08:54.374Z,16.95
2022-11-03T13:09:54.356Z,16.92
2022-11-03T13:10:54.344Z,16.89
2022-11-03T13:11:54.338Z,16.88
2022-11-03T13:12:54.323Z,16.88
2022-11-03T13:13:54.316Z,16.86
2022-11-03T13:14:54.296Z,16.86
2022-11-03T13:15:54.274Z,16.83
2022-11-03T13:16:54.281Z,16.80
2022-11-03T13:18:55.245Z,16.83
2022-11-03T13:19:54.883Z,16.86
2022-11-03T13:20:54.227Z,16.86
2022-11-03T13:21:54.213Z,16.86
2022-11-03T13:22:54.196Z,16.83
2022-11-03T13:23:54.193Z,16.85
2022-11-03T13:24:54.165Z,16.86
2022-11-03T13:25:54.349Z,16.88
2022-11-03T13:26:54.193Z,16.88
2022-11-03T13:27:54.123Z,16.81
2022-11-03T13:28:54.124Z,16.81
2022-11-03T13:29:54.093Z,16.85
2022-11-03T13:30:54.084Z,16.89
2022-11-03T13:31:54.083Z,16.95
2022-11-03T13:32:54.054Z,16.96
2022-11-03T13:33:54.044Z,17.10
2022-11-03T13:34:54.034Z,17.17
2022-11-03T13:35:54.062Z,17.17
2022-11-03T13:36:54.023Z,17.15
2022-11-03T13:37:53.991Z,17.06
2022-11-03T13:38:53.982Z,17.06
2022-11-03T13:39:53.965Z,17.06
2022-11-03T13:40:57.089Z,17.08
2022-11-03T13:41:53.943Z,17.10
2022-11-03T13:42:53.934Z,17.10
2022-11-03T13:43:53.913Z,17.00
2022-11-03T13:44:53.903Z,16.99
2022-11-03T13:45:53.893Z,16.99
2022-11-03T13:46:53.904Z,16.95
2022-11-03T13:50:54.848Z,16.85
2022-11-03T13:51:53.837Z,16.83
2022-11-03T13:52:53.950Z,16.81
2022-11-03T13:55:57.513Z,16.75
2022-11-03T13:59:55.574Z,16.74
2022-11-03T14:00:53.726Z,16.71
2022-11-03T14:04:54.643Z,16.68
2022-11-03T14:05:53.622Z,16.70
2022-11-03T14:06:53.629Z,16.70
2022-11-03T14:07:53.594Z,16.71
2022-11-03T14:08:53.594Z,16.68
2022-11-03T14:09:54.350Z,16.67
2022-11-03T14:10:53.563Z,16.62
2022-11-03T14:11:53.560Z,16.60
2022-11-03T14:12:53.532Z,16.56
2022-11-03T14:13:53.515Z,16.55
2022-11-03T14:14:53.510Z,16.52
2022-11-03T14:15:53.602Z,16.52
2022-11-03T14:16:53.557Z,16.49
2022-11-03T14:17:53.462Z,16.48
2022-11-03T14:18:53.451Z,16.48
2022-11-03T14:19:55.571Z,16.49
2022-11-03T14:20:54.429Z,16.50
2022-11-03T14:21:53.461Z,16.48
2022-11-03T14:22:53.409Z,16.45
2022-11-03T14:23:53.390Z,16.44
2022-11-03T14:24:53.372Z,16.44
2022-11-03T14:26:06.202Z,16.42
2022-11-03T14:26:54.362Z,16.40
2022-11-03T14:27:53.385Z,16.37
2022-11-03T14:28:53.321Z,16.34
2022-11-03T14:29:53.308Z,16.33
2022-11-03T14:30:53.300Z,16.31
2022-11-03T14:31:53.272Z,16.27
2022-11-03T14:32:59.212Z,16.25
2022-11-03T14:33:54.252Z,16.23
2022-11-03T14:34:53.324Z,16.22
2022-11-03T14:35:53.221Z,16.20
2022-11-03T14:36:53.298Z,16.18
2022-11-03T14:37:53.209Z,16.20
2022-11-03T14:38:53.193Z,16.20
2022-11-03T14:39:53.172Z,16.16
2022-11-03T14:40:53.162Z,16.18
2022-11-03T14:41:53.144Z,16.18
2022-11-03T14:42:53.153Z,16.16
2022-11-03T14:43:53.120Z,16.14
2022-11-03T14:45:53.131Z,16.11
2022-11-03T14:46:53.081Z,16.09
2022-11-03T14:47:53.081Z,16.11
2022-11-03T14:48:53.050Z,16.06
2022-11-03T14:49:53.041Z,16.04
2022-11-03T14:50:53.029Z,16.01
2022-11-03T14:51:53.012Z,16.01
2022-11-03T14:52:57.500Z,16.01
2022-11-03T14:53:53.991Z,16.00
2022-11-03T14:54:52.979Z,15.97
2022-11-03T14:55:52.970Z,15.96
2022-11-03T14:56:52.949Z,15.94
2022-11-03T14:57:52.950Z,15.92
2022-11-03T14:58:52.921Z,15.89
2022-11-03T14:59:53.697Z,15.86
2022-11-03T15:00:52.928Z,15.85
2022-11-03T15:01:53.035Z,15.85
2022-11-03T15:02:52.886Z,15.86
2022-11-03T15:03:52.994Z,15.84
2022-11-03T15:04:52.850Z,15.82
2022-11-03T15:05:52.849Z,15.78
2022-11-03T15:06:52.819Z,15.81
2022-11-03T15:07:52.819Z,15.79
2022-11-03T15:08:56.405Z,15.79
2022-11-03T15:09:52.780Z,15.79
2022-11-03T15:10:52.770Z,15.79
2022-11-03T15:11:52.759Z,15.78
2022-11-03T15:12:52.758Z,15.76
2022-11-03T15:13:52.915Z,15.75
2022-11-03T15:14:52.720Z,15.76
2022-11-03T15:15:52.710Z,15.76
2022-11-03T15:16:52.703Z,15.72
2022-11-03T15:17:52.744Z,15.70
2022-11-03T15:18:52.671Z,15.74
2022-11-03T15:19:52.662Z,15.70
2022-11-03T15:20:52.650Z,15.68
2022-11-03T15:21:52.630Z,15.66
2022-11-03T15:25:53.579Z,15.63
2022-11-03T15:26:52.571Z,15.63
2022-11-03T15:27:52.571Z,15.63
2022-11-03T15:28:52.539Z,15.63
2022-11-03T15:29:52.529Z,15.61
2022-11-03T15:30:52.532Z,15.56
2022-11-03T15:31:52.503Z,15.54
2022-11-03T15:32:52.497Z,15.52
2022-11-03T15:33:52.481Z,15.51
2022-11-03T15:34:52.460Z,15.49
2022-11-03T15:35:52.503Z,15.48
2022-11-03T15:36:52.439Z,15.48
2022-11-03T15:37:52.439Z,15.46
2022-11-03T15:38:52.418Z,15.46
2022-11-03T15:39:54.650Z,15.46
2022-11-03T15:40:53.390Z,15.46
2022-11-03T15:41:52.380Z,15.43
2022-11-03T15:42:52.377Z,15.43
2022-11-03T15:43:52.351Z,15.42
2022-11-03T15:44:52.339Z,15.39
2022-11-03T15:45:52.319Z,15.39
2022-11-03T15:46:52.328Z,15.36
2022-11-03T15:47:57.285Z,15.36
2022-11-03T15:48:53.281Z,15.35
2022-11-03T15:49:52.279Z,15.30
2022-11-03T15:50:52.258Z,15.26
2022-11-03T15:51:52.250Z,15.19
2022-11-03T15:52:52.238Z,15.09
2022-11-03T15:53:57.920Z,14.99
2022-11-03T15:54:53.211Z,14.87
2022-11-03T15:55:52.199Z,14.72
2022-11-03T15:56:52.199Z,14.65
2022-11-03T15:57:52.168Z,14.52
2022-11-03T15:58:52.159Z,14.46
2022-11-03T15:59:55.249Z,14.44
2022-11-03T16:00:53.230Z,14.39
2022-11-03T16:01:52.247Z,14.39
2022-11-03T16:02:52.269Z,14.38
2022-11-03T16:03:52.096Z,14.37
2022-11-03T16:04:52.078Z,14.35
2022-11-03T16:05:52.068Z,14.35
2022-11-03T16:07:08.690Z,14.37
2022-11-03T16:07:53.038Z,14.35
2022-11-03T16:08:52.027Z,14.35
2022-11-03T16:09:52.018Z,14.34
2022-11-03T16:10:57.526Z,14.32
2022-11-03T16:11:53.000Z,14.28
2022-11-03T16:12:52.619Z,14.21
2022-11-03T16:13:51.959Z,14.19
2022-11-03T16:14:51.949Z,14.19
2022-11-03T16:15:51.937Z,14.17
2022-11-03T16:16:51.928Z,14.12
2022-11-03T16:17:51.912Z,14.06
2022-11-03T16:18:51.895Z,14.01
2022-11-03T16:19:51.890Z,13.91
2022-11-03T16:20:51.883Z,13.80
2022-11-03T16:21:51.867Z,13.74
2022-11-03T16:23:51.838Z,13.70
2022-11-03T16:24:51.807Z,13.69
2022-11-03T16:25:51.809Z,13.67
2022-11-03T16:26:51.797Z,13.63
2022-11-03T16:27:51.778Z,13.63
2022-11-03T16:28:51.768Z,13.59
2022-11-03T16:29:51.757Z,13.58
2022-11-03T16:30:54.596Z,13.59
2022-11-03T16:31:51.747Z,13.56
2022-11-03T16:32:51.707Z,13.54
2022-11-03T16:33:51.709Z,13.54
2022-11-03T16:34:51.686Z,13.54
2022-11-03T16:35:51.676Z,13.52
2022-11-03T16:36:51.674Z,13.52
2022-11-03T16:37:51.646Z,13.47
2022-11-03T16:38:51.637Z,13.51
2022-11-03T16:39:51.626Z,13.56
2022-11-03T16:40:51.606Z,13.56
2022-11-03T16:41:51.596Z,13.58
2022-11-03T16:42:51.605Z,13.55
2022-11-03T16:43:51.568Z,13.56
2022-11-03T16:44:51.558Z,13.51
2022-11-03T16:45:51.546Z,13.49
2022-11-03T16:46:51.526Z,13.47
2022-11-03T16:47:51.533Z,13.47
2022-11-03T16:48:51.570Z,13.43
2022-11-03T16:49:53.060Z,13.43
2022-11-03T16:50:54.254Z,13.41
2022-11-03T16:51:52.464Z,13.37
2022-11-03T16:52:51.469Z,13.29
2022-11-03T16:53:51.451Z,13.25
2022-11-03T16:54:51.425Z,13.22
2022-11-03T16:55:51.417Z,13.18
2022-11-03T16:56:54.666Z,13.14
2022-11-03T16:57:51.394Z,13.12
2022-11-03T16:58:51.372Z,13.14
2022-11-03T16:59:51.364Z,13.12
2022-11-03T17:00:51.369Z,13.12
2022-11-03T17:01:51.481Z,13.12
2022-11-03T17:02:51.338Z,13.12
2022-11-03T17:03:51.314Z,13.12
2022-11-03T17:04:51.298Z,13.11
2022-11-03T17:05:51.295Z,13.04
2022-11-03T17:06:51.266Z,13.03
2022-11-03T17:07:53.903Z,13.03
2022-11-03T17:08:53.321Z,13.03
2022-11-03T17:09:51.236Z,13.03
2022-11-03T17:10:51.214Z,13.00
2022-11-03T17:11:51.206Z,12.97
2022-11-03T17:12:51.197Z,12.96
2022-11-03T17:13:51.225Z,12.93
2022-11-03T17:14:54.030Z,12.93
2022-11-03T17:15:52.153Z,12.89
2022-11-03T17:16:51.134Z,12.88
2022-11-03T17:17:51.133Z,12.88
2022-11-03T17:18:51.111Z,12.88
2022-11-03T17:19:51.106Z,12.84
2022-11-03T17:20:51.084Z,12.84
2022-11-03T17:21:51.081Z,12.85
2022-11-03T17:22:51.074Z,12.87
2022-11-03T17:23:51.042Z,12.88
2022-11-03T17:24:51.034Z,12.84
2022-11-03T17:25:51.023Z,12.85
2022-11-03T17:26:51.012Z,12.87
2022-11-03T17:27:51.004Z,12.88
2022-11-03T17:28:50.987Z,12.87
2022-11-03T17:29:50.972Z,12.92
2022-11-03T17:30:50.963Z,12.85
2022-11-03T17:31:50.941Z,12.84
2022-11-03T17:32:50.946Z,12.85
2022-11-03T17:33:50.911Z,12.81
2022-11-03T17:34:50.911Z,12.82
2022-11-03T17:35:50.893Z,12.82
2022-11-03T17:36:50.881Z,12.79
2022-11-03T17:37:50.881Z,12.81
2022-11-03T17:38:50.862Z,12.79
2022-11-03T17:39:50.841Z,12.77
2022-11-03T17:40:50.839Z,12.77
2022-11-03T17:41:50.811Z,12.75
2022-11-03T17:42:50.828Z,12.71
2022-11-03T17:43:50.780Z,12.67
2022-11-03T17:44:50.770Z,12.66
2022-11-03T17:45:50.772Z,12.67
2022-11-03T17:46:50.753Z,12.69
2022-11-03T17:47:50.761Z,12.66
2022-11-03T17:48:50.720Z,12.64
2022-11-03T17:49:50.713Z,12.62
2022-11-03T17:50:50.690Z,12.60
2022-11-03T17:51:50.680Z,12.56
2022-11-03T17:52:50.686Z,12.56
2022-11-03T17:53:50.659Z,12.54
2022-11-03T17:54:50.647Z,12.51
2022-11-03T17:56:08.960Z,12.49
2022-11-03T17:56:51.619Z,12.48
2022-11-03T17:57:50.621Z,12.45
2022-11-03T17:58:50.591Z,12.44
2022-11-03T17:59:50.590Z,12.44
2022-11-03T18:00:50.604Z,12.44
2022-11-03T18:01:50.650Z,12.42
2022-11-03T18:02:50.554Z,12.44
2022-11-03T18:03:50.538Z,12.44
2022-11-03T18:04:50.516Z,12.42
2022-11-03T18:05:50.500Z,12.42
2022-11-03T18:06:50.555Z,12.41
2022-11-03T18:07:50.488Z,12.41
2022-11-03T18:08:50.469Z,12.41
2022-11-03T18:09:50.448Z,12.41
2022-11-03T18:10:50.437Z,12.38
2022-11-03T18:11:50.428Z,12.34
2022-11-03T18:12:50.419Z,12.34
2022-11-03T18:13:50.406Z,12.33
2022-11-03T18:14:50.379Z,12.34
2022-11-03T18:15:50.387Z,12.37
2022-11-03T18:16:50.358Z,12.37
2022-11-03T18:17:50.505Z,12.37
2022-11-03T18:18:50.339Z,12.41
2022-11-03T18:19:50.329Z,12.41
2022-11-03T18:20:53.085Z,12.42
2022-11-03T18:21:50.298Z,12.42
2022-11-03T18:22:50.286Z,12.41
2022-11-03T18:23:50.276Z,12.39
2022-11-03T18:24:50.257Z,12.38
2022-11-03T18:25:50.254Z,12.39
2022-11-03T18:26:50.256Z,12.38
2022-11-03T18:27:50.217Z,12.34
2022-11-03T18:28:50.209Z,12.33
2022-11-03T18:29:50.196Z,12.33
2022-11-03T18:30:50.175Z,12.33
2022-11-03T18:31:50.174Z,12.29
2022-11-03T18:32:50.175Z,12.27
2022-11-03T18:33:50.154Z,12.27
2022-11-03T18:34:50.124Z,12.29
2022-11-03T18:35:50.117Z,12.30
2022-11-03T18:36:50.105Z,12.30
2022-11-03T18:37:50.105Z,12.30
2022-11-03T18:38:50.076Z,12.30
2022-11-03T18:39:50.063Z,12.31
2022-11-03T18:40:50.044Z,12.31
2022-11-03T18:41:50.056Z,12.31
2022-11-03T18:42:50.042Z,12.34
2022-11-03T18:43:50.017Z,12.34